Crystal Serenity — C6SY3 — position and weather

sailwx.info

Track history (hours):
 
Tides and Currents Weather Stations Pressure Air Temp Water Temp Dewpoint Dewpoint Depression Visibility Wind Speed Wind Dir Waves Ship Positions

Crystal Serenity

Operator: Crystal Cruises

Last reported at 2018-Jun-19 01:00 UTC. Time now 2018-Jun-19 01:25 UTC.
Position N 59°21' E 018°07'.

Length 250 m; draft 7.8 m.

Type: Passenger vessel. MMSI: 311536000.

Date/timePositionNaut miles runAvg speedWind from/ knotsBaromVisibWave heightAir tempDewpointWater temp
2018-Jun-19 01:00N 59°21' E 018°07'0 0.0
2018-Jun-19 00:30N 59°21' E 018°07'0 0.0
2018-Jun-19 00:00N 59°21' E 018°07'0 0.0
2018-Jun-18 23:30N 59°21' E 018°07'0 0.0
2018-Jun-18 23:00N 59°21' E 018°07'0 0.0
2018-Jun-18 22:30N 59°21' E 018°07'0 0.0
2018-Jun-18 22:00N 59°21' E 018°07'0 0.0
2018-Jun-18 21:30N 59°21' E 018°07'0 0.0
2018-Jun-18 21:00N 59°21' E 018°07'0 0.0
2018-Jun-18 20:30N 59°21' E 018°07'0 0.0
2018-Jun-18 20:00N 59°21' E 018°07'0 0.0
2018-Jun-18 19:30N 59°21' E 018°07'0 0.0
2018-Jun-18 19:00N 59°21' E 018°07'0 0.0
2018-Jun-18 18:30N 59°21' E 018°07'0 0.0
2018-Jun-18 17:57N 59°21' E 018°07'0 0.0
2018-Jun-18 17:30N 59°21' E 018°07'0 0.0
2018-Jun-18 16:51N 59°21' E 018°07'0 0.0
2018-Jun-18 16:30N 59°21' E 018°07'0 0.0
2018-Jun-18 16:00N 59°21' E 018°07'0 0.0
2018-Jun-18 15:18N 59°21' E 018°07'0 0.0
2018-Jun-18 15:00N 59°21' E 018°07'0 0.0
2018-Jun-18 14:27N 59°21' E 018°07'0 0.0
2018-Jun-18 13:57N 59°21' E 018°07'0 0.0
2018-Jun-18 13:27N 59°21' E 018°07'0 0.0
2018-Jun-18 12:54N 59°21' E 018°07'0 0.0
2018-Jun-18 12:27N 59°21' E 018°07'0 0.0
2018-Jun-18 11:57N 59°21' E 018°07'0 0.0
2018-Jun-18 11:21N 59°21' E 018°07'0 0.0
2018-Jun-18 10:54N 59°21' E 018°07'0 0.0
2018-Jun-18 10:30N 59°21' E 018°07'0 0.0
2018-Jun-18 10:00N 59°21' E 018°07'0 0.0
2018-Jun-18 09:27N 59°21' E 018°07'0 0.0
2018-Jun-18 08:54N 59°21' E 018°07'0 0.0
2018-Jun-18 08:27N 59°21' E 018°07'3 5.8
2018-Jun-18 08:00N 59°18' E 018°06'354.6 220 / 91012.0 5.4 16.0 14.0
2018-Jun-18 07:57N 59°21' E 018°07'0 0.0
2018-Jun-18 07:27N 59°21' E 018°07'0 0.0
2018-Jun-18 07:00N 59°21' E 018°07'1 1.5
2018-Jun-18 06:30N 59°21' E 018°09'5 9.1
2018-Jun-18 06:00N 59°22' E 018°17'5 9.8
2018-Jun-18 05:30N 59°22' E 018°26'510.1
2018-Jun-18 05:01N 59°26' E 018°24'810.6
2018-Jun-18 04:17N 59°32' E 018°34'3 9.9
2018-Jun-18 04:00N 59°34' E 018°38'611.6
2018-Jun-18 03:30N 59°37' E 018°48'610.7
2018-Jun-18 02:59N 59°40' E 018°56'815.7
2018-Jun-18 02:29N 59°44' E 019°10'814.1
2018-Jun-18 01:55N 59°47' E 019°25'4 8.8
2018-Jun-18 01:30N 59°48' E 019°32'2113.7
2018-Jun-18 00:00N 59°36' E 020°06'1 4.2 230 / 301011.0 5.4 15.0 14.0
2018-Jun-17 23:46N 59°37' E 020°07'2213.1
2018-Jun-17 22:07N 59°25' E 020°43'215.1
2018-Jun-17 22:00N 59°25' E 020°46'815.2
2018-Jun-17 21:29N 59°25' E 021°02'816.1
2018-Jun-17 21:00N 59°25' E 021°17'1118.5
2018-Jun-17 20:26N 59°25' E 021°38'1432.6
2018-Jun-17 20:00N 59°24' E 022°06'1513.6 160 / 131014.010.8 18.012.717.0
2018-Jun-17 18:55N 59°31' E 022°31'1018.9
2018-Jun-17 18:24N 59°33' E 022°50'718.5
2018-Jun-17 18:01N 59°33' E 023°04'9531.9
2018-Jun-17 18:00N 59°30' E 022°48'1836.8 110 / 191014.010.8 19.013.818.0
2018-Jun-17 17:31N 59°33' E 023°23'918.8
2018-Jun-17 17:00N 59°32' E 023°41'7414.4
2018-Jun-17 17:00N 59°30' E 023°54'3 6.5 060 / 141015.010.8 20.0 18.0
2018-Jun-17 16:31N 59°31' E 023°60'1019.1
2018-Jun-17 16:01N 59°30' E 024°19'917.1
2018-Jun-17 15:30N 59°31' E 024°35'611.5
2018-Jun-17 15:00N 59°29' E 024°46'2 3.6
2018-Jun-17 14:30N 59°27' E 024°46'0 0.0
2018-Jun-17 14:00N 59°27' E 024°46'0 0.0
2018-Jun-17 13:30N 59°27' E 024°46'0 0.0
2018-Jun-17 13:00N 59°27' E 024°46'0 0.0
2018-Jun-17 12:30N 59°27' E 024°46'0 0.0
2018-Jun-17 12:00N 59°27' E 024°46'0 0.0
2018-Jun-17 11:30N 59°27' E 024°46'0 0.0
2018-Jun-17 11:00N 59°27' E 024°46'0 0.0
2018-Jun-17 10:30N 59°27' E 024°46'0 0.0
2018-Jun-17 10:00N 59°27' E 024°46'0 0.0
2018-Jun-17 09:30N 59°27' E 024°46'0 0.0
2018-Jun-17 09:00N 59°27' E 024°46'0 0.0
2018-Jun-17 08:30N 59°27' E 024°46'0 0.0
2018-Jun-17 08:00N 59°27' E 024°46'0 0.0
2018-Jun-17 07:30N 59°27' E 024°46'0 0.0
2018-Jun-17 07:00N 59°27' E 024°46'0 0.0
2018-Jun-17 06:30N 59°27' E 024°46'0 0.0
2018-Jun-17 06:00N 59°27' E 024°46'0 0.0
2018-Jun-17 05:30N 59°27' E 024°46'0 0.0
2018-Jun-17 05:00N 59°27' E 024°46'1 1.4
2018-Jun-17 04:31N 59°28' E 024°46'510.7
2018-Jun-17 04:01N 59°33' E 024°42'611.7
2018-Jun-17 03:30N 59°38' E 024°39'713.6
2018-Jun-17 03:00N 59°45' E 024°39'714.7
2018-Jun-17 02:30N 59°50' E 024°51'918.0
2018-Jun-17 02:00N 59°51' E 025°09'1818.9
2018-Jun-17 01:05N 59°55' E 025°43'319.0
2018-Jun-17 00:56N 59°56' E 025°48'1019.0
2018-Jun-17 00:25N 59°58' E 026°07'818.7
2018-Jun-17 00:00N 59°60' E 026°22'918.2
2018-Jun-16 23:30N 60°01' E 026°40'918.7
2018-Jun-16 23:00N 59°59' E 026°59'918.1
2018-Jun-16 22:30N 60°03' E 027°15'816.3
2018-Jun-16 22:00N 60°07' E 027°29'3171.6
2018-Jun-16 22:00N 60°06' E 027°24'1021.4 170 / 131018.0 5.4 17.0 16.0
2018-Jun-16 21:30N 60°11' E 027°42'714.5
2018-Jun-16 21:00N 60°11' E 027°57'814.9
2018-Jun-16 20:30N 60°09' E 028°11'714.9
2018-Jun-16 20:00N 60°05' E 028°24'5324.7
2018-Jun-16 20:00N 60°00' E 028°24'816.0 340 / 51016.010.8 19.013.815.0
2018-Jun-16 19:30N 60°03' E 028°38'815.4
2018-Jun-16 19:00N 60°03' E 028°54'7424.8
2018-Jun-16 19:00N 60°00' E 029°06'3 6.0 300 / 61016.010.8 20.014.916.0
2018-Jun-16 18:28N 60°02' E 029°11'715.0
2018-Jun-16 18:00N 60°02' E 029°24'710.4
2018-Jun-16 17:22N 60°00' E 029°37'411.8
2018-Jun-16 17:00N 59°59' E 029°45'510.9
2018-Jun-16 16:30N 59°56' E 029°55'5 9.6
2018-Jun-16 16:00N 59°56' E 030°05'3 7.1
2018-Jun-16 15:30N 59°57' E 030°11'0 0.1
2018-Jun-16 14:58N 59°57' E 030°12'0 0.0
2018-Jun-16 14:28N 59°57' E 030°12'0 0.0
2018-Jun-16 13:58N 59°57' E 030°12'0 0.0
2018-Jun-16 13:28N 59°57' E 030°12'0 0.0
2018-Jun-16 12:58N 59°57' E 030°12'0 0.0
2018-Jun-16 12:28N 59°57' E 030°12'0 0.0
2018-Jun-16 11:58N 59°57' E 030°12'0 0.0
2018-Jun-16 11:28N 59°57' E 030°12'0 0.0
2018-Jun-16 10:58N 59°57' E 030°12'0 0.0
2018-Jun-16 10:28N 59°57' E 030°12'0 0.0
2018-Jun-16 09:58N 59°57' E 030°12'0 0.0
2018-Jun-16 09:28N 59°57' E 030°12'3 6.1
2018-Jun-16 09:00N 59°54' E 030°12'3122.3 1018.0 25.018.816.0
2018-Jun-16 08:58N 59°57' E 030°12'0 0.0
2018-Jun-16 08:28N 59°57' E 030°12'0 0.0
2018-Jun-16 07:55N 59°57' E 030°12'0 0.0
2018-Jun-16 07:19N 59°57' E 030°12'0 0.0
2018-Jun-16 06:46N 59°57' E 030°12'0 0.0
2018-Jun-16 06:28N 59°57' E 030°12'0 0.0
2018-Jun-16 05:52N 59°57' E 030°12'0 0.0
2018-Jun-16 05:28N 59°57' E 030°12'0 0.0
2018-Jun-16 04:58N 59°57' E 030°12'0 0.0
2018-Jun-16 04:28N 59°57' E 030°12'0 0.0
2018-Jun-16 03:58N 59°57' E 030°12'0 0.0
2018-Jun-16 03:25N 59°57' E 030°12'0 0.0
2018-Jun-16 02:55N 59°57' E 030°12'0 0.0
2018-Jun-16 02:28N 59°57' E 030°12'0 0.0
2018-Jun-16 01:55N 59°57' E 030°12'0 0.0
2018-Jun-16 01:28N 59°57' E 030°12'0 0.0
2018-Jun-16 00:58N 59°57' E 030°12'0 0.0
2018-Jun-16 00:25N 59°57' E 030°12'0 0.0
2018-Jun-15 23:58N 59°57' E 030°12'0 0.0
2018-Jun-15 23:28N 59°57' E 030°12'0 0.0
2018-Jun-15 22:58N 59°57' E 030°12'0 0.0
2018-Jun-15 22:28N 59°57' E 030°12'0 0.0
2018-Jun-15 21:52N 59°57' E 030°12'0 0.0
2018-Jun-15 21:28N 59°57' E 030°12'0 0.0
2018-Jun-15 20:58N 59°57' E 030°12'0 0.0
2018-Jun-15 20:19N 59°57' E 030°12'0 0.0
2018-Jun-15 19:49N 59°57' E 030°12'0 0.0
2018-Jun-15 19:25N 59°57' E 030°12'3 6.7
2018-Jun-15 19:00N 59°54' E 030°12'3120.9 1014.0 22.017.216.0
2018-Jun-15 18:58N 59°57' E 030°12'0 0.0
2018-Jun-15 18:28N 59°57' E 030°12'3 6.0
2018-Jun-15 18:00N 59°54' E 030°12'3146.4 1014.010.8 22.017.216.0
2018-Jun-15 17:58N 59°57' E 030°12'0 0.0
2018-Jun-15 17:22N 59°57' E 030°12'0 0.0
2018-Jun-15 16:58N 59°57' E 030°12'0 0.0
2018-Jun-15 16:28N 59°57' E 030°12'0 0.0
2018-Jun-15 15:58N 59°57' E 030°12'0 0.0
2018-Jun-15 15:28N 59°57' E 030°12'0 0.0
2018-Jun-15 14:55N 59°57' E 030°12'0 0.0
2018-Jun-15 14:21N 59°57' E 030°12'411.3
2018-Jun-15 14:00N 59°54' E 030°06'4171.9 240 / 71014.010.8 23.0 17.0
2018-Jun-15 13:58N 59°57' E 030°12'0 0.0
2018-Jun-15 13:28N 59°57' E 030°12'0 0.0
2018-Jun-15 12:55N 59°57' E 030°12'0 0.0
2018-Jun-15 12:25N 59°57' E 030°12'0 0.0
2018-Jun-15 11:49N 59°57' E 030°12'0 0.0
2018-Jun-15 11:22N 59°57' E 030°12'0 0.0
2018-Jun-15 10:58N 59°57' E 030°12'0 0.0
2018-Jun-15 10:28N 59°57' E 030°12'0 0.0
2018-Jun-15 09:55N 59°57' E 030°12'0 0.0
2018-Jun-15 09:28N 59°57' E 030°12'3 6.1
2018-Jun-15 09:00N 59°54' E 030°12'341.3 230 / 121014.0 23.0
2018-Jun-15 08:55N 59°57' E 030°12'0 0.0
2018-Jun-15 08:28N 59°57' E 030°12'0 0.0
2018-Jun-15 07:58N 59°57' E 030°12'0 0.0
2018-Jun-15 07:28N 59°57' E 030°12'0 0.0
2018-Jun-15 06:58N 59°57' E 030°12'0 0.0
2018-Jun-15 06:25N 59°57' E 030°12'0 0.0
2018-Jun-15 05:58N 59°57' E 030°12'0 0.0
2018-Jun-15 05:22N 59°57' E 030°12'0 0.0
2018-Jun-15 04:58N 59°57' E 030°12'0 0.0
2018-Jun-15 04:28N 59°57' E 030°12'0 0.0
2018-Jun-15 03:52N 59°57' E 030°12'0 0.0
2018-Jun-15 03:28N 59°57' E 030°12'0 0.0
2018-Jun-15 02:58N 59°57' E 030°12'0 0.0
2018-Jun-15 02:28N 59°57' E 030°12'0 0.0
2018-Jun-15 01:58N 59°57' E 030°12'0 0.0
2018-Jun-15 01:22N 59°57' E 030°12'0 0.0
2018-Jun-15 00:58N 59°57' E 030°12'0 0.0
2018-Jun-15 00:28N 59°57' E 030°12'0 0.0
2018-Jun-14 23:58N 59°57' E 030°12'0 0.0
2018-Jun-14 23:25N 59°57' E 030°12'0 0.0
2018-Jun-14 22:59N 59°57' E 030°12'0 0.0
2018-Jun-14 22:22N 59°57' E 030°12'0 0.0
2018-Jun-14 21:58N 59°57' E 030°12'0 0.0
2018-Jun-14 21:28N 59°57' E 030°12'0 0.0
2018-Jun-14 20:49N 59°57' E 030°12'0 0.0
2018-Jun-14 19:49N 59°57' E 030°12'0 0.0
2018-Jun-14 19:29N 59°57' E 030°12'0 0.0
2018-Jun-14 18:56N 59°57' E 030°12'0 0.0
2018-Jun-14 18:28N 59°57' E 030°12'0 0.0
2018-Jun-14 17:55N 59°57' E 030°12'0 0.0
2018-Jun-14 17:29N 59°57' E 030°12'0 0.0
2018-Jun-14 16:50N 59°57' E 030°12'0 0.0
2018-Jun-14 16:17N 59°57' E 030°12'0 0.0
2018-Jun-14 15:58N 59°57' E 030°12'0 0.0
2018-Jun-14 15:25N 59°57' E 030°12'0 0.0
2018-Jun-14 14:52N 59°57' E 030°12'0 0.0
2018-Jun-14 14:30N 59°57' E 030°12'0 0.0
2018-Jun-14 13:58N 59°57' E 030°12'0 0.0
2018-Jun-14 13:29N 59°57' E 030°12'0 0.0
2018-Jun-14 12:58N 59°57' E 030°12'0 0.0
2018-Jun-14 12:28N 59°57' E 030°12'0 0.0
2018-Jun-14 11:16N 59°57' E 030°12'0 0.0
2018-Jun-14 10:59N 59°57' E 030°12'0 0.0
2018-Jun-14 10:28N 59°57' E 030°12'0 0.0
2018-Jun-14 09:58N 59°57' E 030°12'0 0.0
2018-Jun-14 09:22N 59°57' E 030°12'0 0.0
2018-Jun-14 08:57N 59°57' E 030°12'0 0.0
2018-Jun-14 08:16N 59°57' E 030°12'0 0.0
2018-Jun-14 07:55N 59°57' E 030°12'0 0.0
2018-Jun-14 07:16N 59°57' E 030°12'0 0.0
2018-Jun-14 06:55N 59°57' E 030°12'0 0.0
2018-Jun-14 06:17N 59°57' E 030°12'0 0.0
2018-Jun-14 04:44N 59°57' E 030°12'0 0.0
2018-Jun-14 04:28N 59°57' E 030°12'0 0.0
2018-Jun-14 03:55N 59°57' E 030°12'0 0.8
2018-Jun-14 03:30N 59°57' E 030°11'4 7.2
2018-Jun-14 03:00N 59°56' E 030°04'4 8.5
2018-Jun-14 02:30N 59°56' E 029°55'5 9.8
2018-Jun-14 01:59N 59°58' E 029°46'510.7
2018-Jun-14 01:30N 60°00' E 029°37'712.5
2018-Jun-14 00:58N 60°02' E 029°23'511.7
2018-Jun-14 00:30N 60°02' E 029°13'611.2
2018-Jun-14 00:00N 60°02' E 029°01'713.6
2018-Jun-13 23:30N 60°02' E 028°48'713.7
2018-Jun-13 23:00N 60°02' E 028°34'5392.6
2018-Jun-13 23:00N 60°00' E 028°24'5 9.5 150 / 101009.0 5.4 15.0 15.0
2018-Jun-13 22:31N 60°04' E 028°21'714.0
2018-Jun-13 22:01N 60°08' E 028°09'714.7
2018-Jun-13 21:30N 60°10' E 027°55'713.7
2018-Jun-13 21:00N 60°09' E 027°41'714.6
2018-Jun-13 20:30N 60°05' E 027°28'815.2
2018-Jun-13 20:00N 60°01' E 027°15'815.1
2018-Jun-13 19:31N 59°58' E 027°02'815.2
2018-Jun-13 19:00N 59°59' E 026°47'6409.0
2018-Jun-13 19:00N 59°54' E 026°54'1224.8 020 / 41010.010.8 13.0 6.815.0
2018-Jun-13 18:30N 59°59' E 026°32'917.1
2018-Jun-13 18:00N 59°56' E 026°15'8515.5
2018-Jun-13 18:00N 59°54' E 026°00'2 3.1 300 / 41010.010.8 14.0 8.015.0
2018-Jun-13 17:30N 59°54' E 025°57'918.6
2018-Jun-13 17:00N 59°52' E 025°38'918.8
2018-Jun-13 16:30N 59°53' E 025°20'918.5
2018-Jun-13 16:01N 59°54' E 025°02'4229.6
2018-Jun-13 16:00N 59°54' E 024°54'715.0 250 / 221006.010.8 15.0 14.0
2018-Jun-13 15:31N 60°01' E 024°56'713.8
2018-Jun-13 15:00N 60°08' E 024°54'1 2.2
2018-Jun-13 14:30N 60°09' E 024°55'0 0.0
2018-Jun-13 14:00N 60°09' E 024°55'0 0.0
2018-Jun-13 13:30N 60°09' E 024°55'0 0.0
2018-Jun-13 12:57N 60°09' E 024°55'0 0.0
2018-Jun-13 12:30N 60°09' E 024°55'0 0.0
2018-Jun-13 12:00N 60°09' E 024°55'0 0.0
2018-Jun-13 11:30N 60°09' E 024°55'0 0.0
2018-Jun-13 11:00N 60°09' E 024°55'0 0.0
2018-Jun-13 10:30N 60°09' E 024°55'0 0.0
2018-Jun-13 10:00N 60°09' E 024°55'0 0.0
2018-Jun-13 09:30N 60°09' E 024°55'0 0.0
2018-Jun-13 09:00N 60°09' E 024°55'0 0.0
2018-Jun-13 08:30N 60°09' E 024°55'0 0.0
2018-Jun-13 08:00N 60°09' E 024°55'0 0.0
2018-Jun-13 07:30N 60°09' E 024°55'0 0.0
2018-Jun-13 07:00N 60°09' E 024°55'0 0.0
2018-Jun-13 06:30N 60°09' E 024°55'0 0.0
2018-Jun-13 06:00N 60°09' E 024°55'0 0.7
2018-Jun-13 05:30N 60°09' E 024°55'4 7.3
2018-Jun-13 05:00N 60°05' E 024°54'713.1
2018-Jun-13 04:30N 59°59' E 024°57'510.0
2018-Jun-13 04:00N 59°54' E 024°55'510.5
2018-Jun-13 03:30N 59°49' E 024°52'612.1
2018-Jun-13 03:00N 59°46' E 024°42'713.4
2018-Jun-13 02:31N 59°44' E 024°29'714.0
2018-Jun-13 02:00N 59°42' E 024°15'2163.1
2018-Jun-13 02:00N 59°42' E 024°12'511.2 360 / 171005.010.8 12.0 13.0
2018-Jun-13 01:30N 59°40' E 024°02'714.3
2018-Jun-13 01:00N 59°37' E 023°49'918.5
2018-Jun-13 00:30N 59°35' E 023°32'1018.8
2018-Jun-13 00:00N 59°32' E 023°14'1019.0
2018-Jun-12 23:29N 59°28' E 022°56'1818.7
2018-Jun-12 22:32N 59°21' E 022°24'018.1
2018-Jun-12 22:30N 59°20' E 022°23'918.2
2018-Jun-12 22:00N 59°14' E 022°10'3194.0
2018-Jun-12 22:00N 59°12' E 022°06'612.4 330 / 251006.0 5.4 13.0 13.0
2018-Jun-12 21:30N 59°08' E 021°57'918.0
2018-Jun-12 21:00N 59°02' E 021°44'917.8
2018-Jun-12 20:30N 58°55' E 021°34'917.7
2018-Jun-12 20:00N 58°48' E 021°24'3225.5
2018-Jun-12 20:00N 58°48' E 021°30'1123.3 340 / 211006.010.8 13.0 9.114.0
2018-Jun-12 19:30N 58°40' E 021°14'1118.4
2018-Jun-12 18:54N 58°31' E 021°02'2325.8
2018-Jun-12 18:00N 58°12' E 020°36'5317.7 340 / 141006.010.8 13.0 9.114.0
2018-Jun-12 15:00N 57°24' E 019°54'8416.7 350 / 201005.010.8 14.0 16.0
2018-Jun-12 10:00N 56°12' E 018°36'3232.3 320 / 251015.0 5.4 16.0 16.0
2018-Jun-12 09:00N 55°54' E 017°48'7416.1 320 / 211005.010.8 16.010.416.0
2018-Jun-12 04:25N 55°39' E 015°40'1118.9
2018-Jun-12 03:51N 55°37' E 015°22'618.8
2018-Jun-12 03:30N 55°34' E 015°11'1019.2
2018-Jun-12 03:00N 55°30' E 014°56'176.2
2018-Jun-12 03:00N 55°30' E 014°54'918.2 280 / 211006.010.8 14.0 15.0
2018-Jun-12 02:30N 55°25' E 014°42'918.8
2018-Jun-12 02:00N 55°18' E 014°31'7467.4
2018-Jun-12 02:00N 55°12' E 014°24'3 6.7 290 / 251008.0 5.4 15.0 17.0
2018-Jun-12 01:30N 55°11' E 014°18'1118.4
2018-Jun-12 00:54N 55°09' E 013°59'818.6
2018-Jun-12 00:28N 55°10' E 013°45'1632.8
2018-Jun-12 00:00N 55°12' E 013°18'7 9.5 290 / 221009.0 5.4 15.0 17.0
2018-Jun-11 23:15N 55°14' E 013°06'418.4
2018-Jun-11 23:00N 55°14' E 012°58'918.0
2018-Jun-11 22:30N 55°17' E 012°43'713.5
2018-Jun-11 22:00N 55°23' E 012°38'816.2
2018-Jun-11 21:30N 55°31' E 012°42'4 9.0
2018-Jun-11 21:00N 55°35' E 012°42'5 9.4
2018-Jun-11 20:30N 55°40' E 012°41'4 7.7
2018-Jun-11 20:00N 55°43' E 012°38'1 2.5
2018-Jun-11 19:30N 55°42' E 012°36'0 0.2
2018-Jun-11 19:00N 55°42' E 012°36'0 9.2 280 / 51009.010.8 16.012.420.0
2018-Jun-11 18:59N 55°42' E 012°36'0 0.0
2018-Jun-11 18:29N 55°42' E 012°36'0 0.0
2018-Jun-11 17:59N 55°42' E 012°36'0 0.0
2018-Jun-11 17:29N 55°42' E 012°36'0 0.0
2018-Jun-11 16:59N 55°42' E 012°36'0 0.0
2018-Jun-11 16:29N 55°42' E 012°36'0 0.0
2018-Jun-11 15:59N 55°42' E 012°36'0 0.0
2018-Jun-11 15:29N 55°42' E 012°36'0 0.0
2018-Jun-11 14:59N 55°42' E 012°36'0 0.0
2018-Jun-11 14:29N 55°42' E 012°36'0 0.0
2018-Jun-11 13:59N 55°42' E 012°36'0 0.0
2018-Jun-11 13:29N 55°42' E 012°36'0 0.0
2018-Jun-11 12:59N 55°42' E 012°36'0 0.0
2018-Jun-11 12:29N 55°42' E 012°36'0 0.0
2018-Jun-11 11:59N 55°42' E 012°36'0 0.0
2018-Jun-11 11:29N 55°42' E 012°36'0 0.0
2018-Jun-11 10:59N 55°42' E 012°36'0 0.0
2018-Jun-11 10:29N 55°42' E 012°36'0 0.0
2018-Jun-11 09:59N 55°42' E 012°36'0 0.0
2018-Jun-11 09:29N 55°42' E 012°36'0 0.0
2018-Jun-11 08:59N 55°42' E 012°36'0 0.0
2018-Jun-11 08:29N 55°42' E 012°36'0 0.0
2018-Jun-11 07:59N 55°42' E 012°36'0 0.0
2018-Jun-11 07:29N 55°42' E 012°36'0 0.0
2018-Jun-11 06:59N 55°42' E 012°36'0 0.0
2018-Jun-11 06:29N 55°42' E 012°36'0 0.5
2018-Jun-11 06:01N 55°42' E 012°36'3 5.0
2018-Jun-11 05:30N 55°44' E 012°40'2 5.0
2018-Jun-11 05:00N 55°46' E 012°42'510.3
2018-Jun-11 04:30N 55°51' E 012°41'510.9
2018-Jun-11 04:00N 55°57' E 012°39'713.9
2018-Jun-11 03:30N 56°04' E 012°38'815.5
2018-Jun-11 03:00N 56°09' E 012°27'6353.9
2018-Jun-11 03:00N 56°06' E 012°18'3819.2 290 / 151014.010.8 12.0 14.0
2018-Jun-11 01:00N 56°42' E 011°54'3310.3 280 / 251009.010.8 16.0 20.0
2018-Jun-10 21:48N 57°13' E 011°34'414.8
2018-Jun-10 21:30N 57°17' E 011°32'715.0
2018-Jun-10 21:00N 57°24' E 011°27'5304.6
2018-Jun-10 21:00N 57°24' E 011°18'613.1 270 / 201009.010.8 15.011.319.0
2018-Jun-10 20:30N 57°30' E 011°20'714.4
2018-Jun-10 20:00N 57°35' E 011°10'714.6
2018-Jun-10 19:30N 57°40' E 010°59'918.5
2018-Jun-10 19:00N 57°42' E 010°42'2914.4 250 / 201009.0 5.4 15.011.319.0
2018-Jun-10 17:00N 57°42' E 009°48'9017.9 250 / 121014.0 5.4 14.0 16.0
2018-Jun-10 12:00N 56°48' E 007°36'2914.6 300 / 151012.0 5.4 14.0 18.0
2018-Jun-10 10:00N 56°24' E 007°06'1919.2 300 / 151014.0 5.4 14.010.214.0
2018-Jun-10 09:00N 56°06' E 006°54'2120.6 290 / 181014.010.8 14.010.215.0
2018-Jun-10 08:00N 55°48' E 006°36'10020.1 030 / 151014.010.8 14.0 16.0
2018-Jun-10 03:00N 54°18' E 005°18'0 0.0 1015.0
2018-Jun-10 02:00N 54°18' E 005°18'3721.9 340 / 201015.0 5.4 15.0 15.0
2018-Jun-10 00:17N 53°43' E 004°55'518.3
2018-Jun-10 00:00N 53°38' E 004°52'16986.0
2018-Jun-10 00:00N 53°24' E 004°42'713.6 1015.0 15.0 15.0
2018-Jun-09 23:30N 53°30' E 004°47'917.9
2018-Jun-09 23:00N 53°22' E 004°39'2195.2
2018-Jun-09 23:00N 53°24' E 004°42'1521.3 350 / 151015.0 5.4 15.0 15.0
2018-Jun-09 22:16N 53°10' E 004°31'517.5
2018-Jun-09 22:00N 53°06' E 004°27'917.4
2018-Jun-09 21:30N 52°58' E 004°22'917.3
2018-Jun-09 21:00N 52°50' E 004°16'4255.5
2018-Jun-09 21:00N 52°54' E 004°18'1326.1 010 / 151014.010.8 14.010.215.0
2018-Jun-09 20:30N 52°43' E 004°08'816.5
2018-Jun-09 20:00N 52°35' E 004°06'5313.8
2018-Jun-09 20:00N 52°30' E 004°06'715.3 020 / 171014.010.8 15.011.315.0
2018-Jun-09 19:30N 52°30' E 004°18'714.4
2018-Jun-09 19:00N 52°29' E 004°30'6363.4
2018-Jun-09 19:00N 52°24' E 004°24'917.7 010 / 251014.010.8 15.0 9.215.0
2018-Jun-09 18:31N 52°28' E 004°36'0 0.7
2018-Jun-09 18:00N 52°28' E 004°37'3 5.6
2018-Jun-09 17:31N 52°27' E 004°41'4 7.2
2018-Jun-09 17:01N 52°26' E 004°47'3193.1
2018-Jun-09 17:00N 52°24' E 004°42'613.1 030 / 141014.0 5.4 22.0 17.0
2018-Jun-09 16:31N 52°25' E 004°52'2 4.9
2018-Jun-09 16:00N 52°23' E 004°55'0 0.1
2018-Jun-09 15:30N 52°23' E 004°55'0 0.0
2018-Jun-09 14:30N 52°23' E 004°55'0 0.0
2018-Jun-09 14:00N 52°23' E 004°55'0 0.0
2018-Jun-09 13:30N 52°23' E 004°55'0 0.0
2018-Jun-09 13:00N 52°23' E 004°55'0 0.0
2018-Jun-09 12:30N 52°23' E 004°55'0 0.0
2018-Jun-09 12:00N 52°23' E 004°55'0 0.0
2018-Jun-09 11:27N 52°23' E 004°55'0 0.0
2018-Jun-09 11:00N 52°23' E 004°55'0 0.0
2018-Jun-09 10:30N 52°23' E 004°55'0 0.0
2018-Jun-09 10:00N 52°23' E 004°55'0 0.0
2018-Jun-09 09:30N 52°23' E 004°55'0 0.0
2018-Jun-09 09:00N 52°23' E 004°55'0 0.0
2018-Jun-09 08:30N 52°23' E 004°55'0 0.0
2018-Jun-09 08:00N 52°23' E 004°55'0 0.0
2018-Jun-09 07:30N 52°23' E 004°55'0 0.0
2018-Jun-09 07:00N 52°23' E 004°55'0 0.0
2018-Jun-09 06:30N 52°23' E 004°55'0 0.0
2018-Jun-09 06:00N 52°23' E 004°55'0 0.0
2018-Jun-09 05:30N 52°23' E 004°55'0 0.0
2018-Jun-09 05:00N 52°23' E 004°55'0 0.0
2018-Jun-09 04:30N 52°23' E 004°55'0 0.0
2018-Jun-09 04:00N 52°23' E 004°55'0 0.0
2018-Jun-09 03:30N 52°23' E 004°55'0 0.0
2018-Jun-09 03:00N 52°23' E 004°55'0 0.0
2018-Jun-09 02:30N 52°23' E 004°55'0 0.0
2018-Jun-09 02:00N 52°23' E 004°55'17515027.0
2018-Jun-09 02:00N 55°18' E 004°54'175358.8 010 / 101015.0 5.4 16.0 16.0
2018-Jun-09 01:30N 52°23' E 004°55'0 0.0
2018-Jun-09 01:00N 52°23' E 004°55'  
Track history (hours):
 
Tides and Currents Weather Stations Pressure Air Temp Water Temp Dewpoint Dewpoint Depression Visibility Wind Speed Wind Dir Waves Ship Positions

Crystal Serenity

Operator: Crystal Cruises

Last reported at 2018-Jun-19 01:00 UTC. Time now 2018-Jun-19 01:25 UTC.
Position N 59°21' E 018°07'.

Length 250 m; draft 7.8 m.

Type: Passenger vessel. MMSI: 311536000.

Date/timePositionNaut miles runAvg speedWind from/ knotsBaromVisibWave heightAir tempDewpointWater temp
2018-Jun-19 01:00N 59°21' E 018°07'0 0.0
2018-Jun-19 00:30N 59°21' E 018°07'0 0.0
2018-Jun-19 00:00N 59°21' E 018°07'0 0.0
2018-Jun-18 23:30N 59°21' E 018°07'0 0.0
2018-Jun-18 23:00N 59°21' E 018°07'0 0.0
2018-Jun-18 22:30N 59°21' E 018°07'0 0.0
2018-Jun-18 22:00N 59°21' E 018°07'0 0.0
2018-Jun-18 21:30N 59°21' E 018°07'0 0.0
2018-Jun-18 21:00N 59°21' E 018°07'0 0.0
2018-Jun-18 20:30N 59°21' E 018°07'0 0.0
2018-Jun-18 20:00N 59°21' E 018°07'0 0.0
2018-Jun-18 19:30N 59°21' E 018°07'0 0.0
2018-Jun-18 19:00N 59°21' E 018°07'0 0.0
2018-Jun-18 18:30N 59°21' E 018°07'0 0.0
2018-Jun-18 17:57N 59°21' E 018°07'0 0.0
2018-Jun-18 17:30N 59°21' E 018°07'0 0.0
2018-Jun-18 16:51N 59°21' E 018°07'0 0.0
2018-Jun-18 16:30N 59°21' E 018°07'0 0.0
2018-Jun-18 16:00N 59°21' E 018°07'0 0.0
2018-Jun-18 15:18N 59°21' E 018°07'0 0.0
2018-Jun-18 15:00N 59°21' E 018°07'0 0.0
2018-Jun-18 14:27N 59°21' E 018°07'0 0.0
2018-Jun-18 13:57N 59°21' E 018°07'0 0.0
2018-Jun-18 13:27N 59°21' E 018°07'0 0.0
2018-Jun-18 12:54N 59°21' E 018°07'0 0.0
2018-Jun-18 12:27N 59°21' E 018°07'0 0.0
2018-Jun-18 11:57N 59°21' E 018°07'0 0.0
2018-Jun-18 11:21N 59°21' E 018°07'0 0.0
2018-Jun-18 10:54N 59°21' E 018°07'0 0.0
2018-Jun-18 10:30N 59°21' E 018°07'0 0.0
2018-Jun-18 10:00N 59°21' E 018°07'0 0.0
2018-Jun-18 09:27N 59°21' E 018°07'0 0.0
2018-Jun-18 08:54N 59°21' E 018°07'0 0.0
2018-Jun-18 08:27N 59°21' E 018°07'3 5.8
2018-Jun-18 08:00N 59°18' E 018°06'354.6 220 / 91012.0 5.4 16.0 14.0
2018-Jun-18 07:57N 59°21' E 018°07'0 0.0
2018-Jun-18 07:27N 59°21' E 018°07'0 0.0
2018-Jun-18 07:00N 59°21' E 018°07'1 1.5
2018-Jun-18 06:30N 59°21' E 018°09'5 9.1
2018-Jun-18 06:00N 59°22' E 018°17'5 9.8
2018-Jun-18 05:30N 59°22' E 018°26'510.1
2018-Jun-18 05:01N 59°26' E 018°24'810.6
2018-Jun-18 04:17N 59°32' E 018°34'3 9.9
2018-Jun-18 04:00N 59°34' E 018°38'611.6
2018-Jun-18 03:30N 59°37' E 018°48'610.7
2018-Jun-18 02:59N 59°40' E 018°56'815.7
2018-Jun-18 02:29N 59°44' E 019°10'814.1
2018-Jun-18 01:55N 59°47' E 019°25'4 8.8
2018-Jun-18 01:30N 59°48' E 019°32'2113.7
2018-Jun-18 00:00N 59°36' E 020°06'1 4.2 230 / 301011.0 5.4 15.0 14.0
2018-Jun-17 23:46N 59°37' E 020°07'2213.1
2018-Jun-17 22:07N 59°25' E 020°43'215.1
2018-Jun-17 22:00N 59°25' E 020°46'815.2
2018-Jun-17 21:29N 59°25' E 021°02'816.1
2018-Jun-17 21:00N 59°25' E 021°17'1118.5
2018-Jun-17 20:26N 59°25' E 021°38'1432.6
2018-Jun-17 20:00N 59°24' E 022°06'1513.6 160 / 131014.010.8 18.012.717.0
2018-Jun-17 18:55N 59°31' E 022°31'1018.9
2018-Jun-17 18:24N 59°33' E 022°50'718.5
2018-Jun-17 18:01N 59°33' E 023°04'9531.9
2018-Jun-17 18:00N 59°30' E 022°48'1836.8 110 / 191014.010.8 19.013.818.0
2018-Jun-17 17:31N 59°33' E 023°23'918.8
2018-Jun-17 17:00N 59°32' E 023°41'7414.4
2018-Jun-17 17:00N 59°30' E 023°54'3 6.5 060 / 141015.010.8 20.0 18.0
2018-Jun-17 16:31N 59°31' E 023°60'1019.1
2018-Jun-17 16:01N 59°30' E 024°19'917.1
2018-Jun-17 15:30N 59°31' E 024°35'611.5
2018-Jun-17 15:00N 59°29' E 024°46'2 3.6
2018-Jun-17 14:30N 59°27' E 024°46'0 0.0
2018-Jun-17 14:00N 59°27' E 024°46'0 0.0
2018-Jun-17 13:30N 59°27' E 024°46'0 0.0
2018-Jun-17 13:00N 59°27' E 024°46'0 0.0
2018-Jun-17 12:30N 59°27' E 024°46'0 0.0
2018-Jun-17 12:00N 59°27' E 024°46'0 0.0
2018-Jun-17 11:30N 59°27' E 024°46'0 0.0
2018-Jun-17 11:00N 59°27' E 024°46'0 0.0
2018-Jun-17 10:30N 59°27' E 024°46'0 0.0
2018-Jun-17 10:00N 59°27' E 024°46'0 0.0
2018-Jun-17 09:30N 59°27' E 024°46'0 0.0
2018-Jun-17 09:00N 59°27' E 024°46'0 0.0
2018-Jun-17 08:30N 59°27' E 024°46'0 0.0
2018-Jun-17 08:00N 59°27' E 024°46'0 0.0
2018-Jun-17 07:30N 59°27' E 024°46'0 0.0
2018-Jun-17 07:00N 59°27' E 024°46'0 0.0
2018-Jun-17 06:30N 59°27' E 024°46'0 0.0
2018-Jun-17 06:00N 59°27' E 024°46'0 0.0
2018-Jun-17 05:30N 59°27' E 024°46'0 0.0
2018-Jun-17 05:00N 59°27' E 024°46'1 1.4
2018-Jun-17 04:31N 59°28' E 024°46'510.7
2018-Jun-17 04:01N 59°33' E 024°42'611.7
2018-Jun-17 03:30N 59°38' E 024°39'713.6
2018-Jun-17 03:00N 59°45' E 024°39'714.7
2018-Jun-17 02:30N 59°50' E 024°51'918.0
2018-Jun-17 02:00N 59°51' E 025°09'1818.9
2018-Jun-17 01:05N 59°55' E 025°43'319.0
2018-Jun-17 00:56N 59°56' E 025°48'1019.0
2018-Jun-17 00:25N 59°58' E 026°07'818.7
2018-Jun-17 00:00N 59°60' E 026°22'918.2
2018-Jun-16 23:30N 60°01' E 026°40'918.7
2018-Jun-16 23:00N 59°59' E 026°59'918.1
2018-Jun-16 22:30N 60°03' E 027°15'816.3
2018-Jun-16 22:00N 60°07' E 027°29'3171.6
2018-Jun-16 22:00N 60°06' E 027°24'1021.4 170 / 131018.0 5.4 17.0 16.0
2018-Jun-16 21:30N 60°11' E 027°42'714.5
2018-Jun-16 21:00N 60°11' E 027°57'814.9
2018-Jun-16 20:30N 60°09' E 028°11'714.9
2018-Jun-16 20:00N 60°05' E 028°24'5324.7
2018-Jun-16 20:00N 60°00' E 028°24'816.0 340 / 51016.010.8 19.013.815.0
2018-Jun-16 19:30N 60°03' E 028°38'815.4
2018-Jun-16 19:00N 60°03' E 028°54'7424.8
2018-Jun-16 19:00N 60°00' E 029°06'3 6.0 300 / 61016.010.8 20.014.916.0
2018-Jun-16 18:28N 60°02' E 029°11'715.0
2018-Jun-16 18:00N 60°02' E 029°24'710.4
2018-Jun-16 17:22N 60°00' E 029°37'411.8
2018-Jun-16 17:00N 59°59' E 029°45'510.9
2018-Jun-16 16:30N 59°56' E 029°55'5 9.6
2018-Jun-16 16:00N 59°56' E 030°05'3 7.1
2018-Jun-16 15:30N 59°57' E 030°11'0 0.1
2018-Jun-16 14:58N 59°57' E 030°12'0 0.0
2018-Jun-16 14:28N 59°57' E 030°12'0 0.0
2018-Jun-16 13:58N 59°57' E 030°12'0 0.0
2018-Jun-16 13:28N 59°57' E 030°12'0 0.0
2018-Jun-16 12:58N 59°57' E 030°12'0 0.0
2018-Jun-16 12:28N 59°57' E 030°12'0 0.0
2018-Jun-16 11:58N 59°57' E 030°12'0 0.0
2018-Jun-16 11:28N 59°57' E 030°12'0 0.0
2018-Jun-16 10:58N 59°57' E 030°12'0 0.0
2018-Jun-16 10:28N 59°57' E 030°12'0 0.0
2018-Jun-16 09:58N 59°57' E 030°12'0 0.0
2018-Jun-16 09:28N 59°57' E 030°12'3 6.1
2018-Jun-16 09:00N 59°54' E 030°12'3122.3 1018.0 25.018.816.0
2018-Jun-16 08:58N 59°57' E 030°12'0 0.0
2018-Jun-16 08:28N 59°57' E 030°12'0 0.0
2018-Jun-16 07:55N 59°57' E 030°12'0 0.0
2018-Jun-16 07:19N 59°57' E 030°12'0 0.0
2018-Jun-16 06:46N 59°57' E 030°12'0 0.0
2018-Jun-16 06:28N 59°57' E 030°12'0 0.0
2018-Jun-16 05:52N 59°57' E 030°12'0 0.0
2018-Jun-16 05:28N 59°57' E 030°12'0 0.0
2018-Jun-16 04:58N 59°57' E 030°12'0 0.0
2018-Jun-16 04:28N 59°57' E 030°12'0 0.0
2018-Jun-16 03:58N 59°57' E 030°12'0 0.0
2018-Jun-16 03:25N 59°57' E 030°12'0 0.0
2018-Jun-16 02:55N 59°57' E 030°12'0 0.0
2018-Jun-16 02:28N 59°57' E 030°12'0 0.0
2018-Jun-16 01:55N 59°57' E 030°12'0 0.0
2018-Jun-16 01:28N 59°57' E 030°12'0 0.0
2018-Jun-16 00:58N 59°57' E 030°12'0 0.0
2018-Jun-16 00:25N 59°57' E 030°12'0 0.0
2018-Jun-15 23:58N 59°57' E 030°12'0 0.0
2018-Jun-15 23:28N 59°57' E 030°12'0 0.0
2018-Jun-15 22:58N 59°57' E 030°12'0 0.0
2018-Jun-15 22:28N 59°57' E 030°12'0 0.0
2018-Jun-15 21:52N 59°57' E 030°12'0 0.0
2018-Jun-15 21:28N 59°57' E 030°12'0 0.0
2018-Jun-15 20:58N 59°57' E 030°12'0 0.0
2018-Jun-15 20:19N 59°57' E 030°12'0 0.0
2018-Jun-15 19:49N 59°57' E 030°12'0 0.0
2018-Jun-15 19:25N 59°57' E 030°12'3 6.7
2018-Jun-15 19:00N 59°54' E 030°12'3120.9 1014.0 22.017.216.0
2018-Jun-15 18:58N 59°57' E 030°12'0 0.0
2018-Jun-15 18:28N 59°57' E 030°12'3 6.0
2018-Jun-15 18:00N 59°54' E 030°12'3146.4 1014.010.8 22.017.216.0
2018-Jun-15 17:58N 59°57' E 030°12'0 0.0
2018-Jun-15 17:22N 59°57' E 030°12'0 0.0
2018-Jun-15 16:58N 59°57' E 030°12'0 0.0
2018-Jun-15 16:28N 59°57' E 030°12'0 0.0
2018-Jun-15 15:58N 59°57' E 030°12'0 0.0
2018-Jun-15 15:28N 59°57' E 030°12'0 0.0
2018-Jun-15 14:55N 59°57' E 030°12'0 0.0
2018-Jun-15 14:21N 59°57' E 030°12'411.3
2018-Jun-15 14:00N 59°54' E 030°06'4171.9 240 / 71014.010.8 23.0 17.0
2018-Jun-15 13:58N 59°57' E 030°12'0 0.0
2018-Jun-15 13:28N 59°57' E 030°12'0 0.0
2018-Jun-15 12:55N 59°57' E 030°12'0 0.0
2018-Jun-15 12:25N 59°57' E 030°12'0 0.0
2018-Jun-15 11:49N 59°57' E 030°12'0 0.0
2018-Jun-15 11:22N 59°57' E 030°12'0 0.0
2018-Jun-15 10:58N 59°57' E 030°12'0 0.0
2018-Jun-15 10:28N 59°57' E 030°12'0 0.0
2018-Jun-15 09:55N 59°57' E 030°12'0 0.0
2018-Jun-15 09:28N 59°57' E 030°12'3 6.1
2018-Jun-15 09:00N 59°54' E 030°12'341.3 230 / 121014.0 23.0
2018-Jun-15 08:55N 59°57' E 030°12'0 0.0
2018-Jun-15 08:28N 59°57' E 030°12'0 0.0
2018-Jun-15 07:58N 59°57' E 030°12'0 0.0
2018-Jun-15 07:28N 59°57' E 030°12'0 0.0
2018-Jun-15 06:58N 59°57' E 030°12'0 0.0
2018-Jun-15 06:25N 59°57' E 030°12'0 0.0
2018-Jun-15 05:58N 59°57' E 030°12'0 0.0
2018-Jun-15 05:22N 59°57' E 030°12'0 0.0
2018-Jun-15 04:58N 59°57' E 030°12'0 0.0
2018-Jun-15 04:28N 59°57' E 030°12'0 0.0
2018-Jun-15 03:52N 59°57' E 030°12'0 0.0
2018-Jun-15 03:28N 59°57' E 030°12'0 0.0
2018-Jun-15 02:58N 59°57' E 030°12'0 0.0
2018-Jun-15 02:28N 59°57' E 030°12'0 0.0
2018-Jun-15 01:58N 59°57' E 030°12'0 0.0
2018-Jun-15 01:22N 59°57' E 030°12'0 0.0
2018-Jun-15 00:58N 59°57' E 030°12'0 0.0
2018-Jun-15 00:28N 59°57' E 030°12'0 0.0
2018-Jun-14 23:58N 59°57' E 030°12'0 0.0
2018-Jun-14 23:25N 59°57' E 030°12'0 0.0
2018-Jun-14 22:59N 59°57' E 030°12'0 0.0
2018-Jun-14 22:22N 59°57' E 030°12'0 0.0
2018-Jun-14 21:58N 59°57' E 030°12'0 0.0
2018-Jun-14 21:28N 59°57' E 030°12'0 0.0
2018-Jun-14 20:49N 59°57' E 030°12'0 0.0
2018-Jun-14 19:49N 59°57' E 030°12'0 0.0
2018-Jun-14 19:29N 59°57' E 030°12'0 0.0
2018-Jun-14 18:56N 59°57' E 030°12'0 0.0
2018-Jun-14 18:28N 59°57' E 030°12'0 0.0
2018-Jun-14 17:55N 59°57' E 030°12'0 0.0
2018-Jun-14 17:29N 59°57' E 030°12'0 0.0
2018-Jun-14 16:50N 59°57' E 030°12'0 0.0
2018-Jun-14 16:17N 59°57' E 030°12'0 0.0
2018-Jun-14 15:58N 59°57' E 030°12'0 0.0
2018-Jun-14 15:25N 59°57' E 030°12'0 0.0
2018-Jun-14 14:52N 59°57' E 030°12'0 0.0
2018-Jun-14 14:30N 59°57' E 030°12'0 0.0
2018-Jun-14 13:58N 59°57' E 030°12'0 0.0
2018-Jun-14 13:29N 59°57' E 030°12'0 0.0
2018-Jun-14 12:58N 59°57' E 030°12'0 0.0
2018-Jun-14 12:28N 59°57' E 030°12'0 0.0
2018-Jun-14 11:16N 59°57' E 030°12'0 0.0
2018-Jun-14 10:59N 59°57' E 030°12'0 0.0
2018-Jun-14 10:28N 59°57' E 030°12'0 0.0
2018-Jun-14 09:58N 59°57' E 030°12'0 0.0
2018-Jun-14 09:22N 59°57' E 030°12'0 0.0
2018-Jun-14 08:57N 59°57' E 030°12'0 0.0
2018-Jun-14 08:16N 59°57' E 030°12'0 0.0
2018-Jun-14 07:55N 59°57' E 030°12'0 0.0
2018-Jun-14 07:16N 59°57' E 030°12'0 0.0
2018-Jun-14 06:55N 59°57' E 030°12'0 0.0
2018-Jun-14 06:17N 59°57' E 030°12'0 0.0
2018-Jun-14 04:44N 59°57' E 030°12'0 0.0
2018-Jun-14 04:28N 59°57' E 030°12'0 0.0
2018-Jun-14 03:55N 59°57' E 030°12'0 0.8
2018-Jun-14 03:30N 59°57' E 030°11'4 7.2
2018-Jun-14 03:00N 59°56' E 030°04'4 8.5
2018-Jun-14 02:30N 59°56' E 029°55'5 9.8
2018-Jun-14 01:59N 59°58' E 029°46'510.7
2018-Jun-14 01:30N 60°00' E 029°37'712.5
2018-Jun-14 00:58N 60°02' E 029°23'511.7
2018-Jun-14 00:30N 60°02' E 029°13'611.2
2018-Jun-14 00:00N 60°02' E 029°01'713.6
2018-Jun-13 23:30N 60°02' E 028°48'713.7
2018-Jun-13 23:00N 60°02' E 028°34'5392.6
2018-Jun-13 23:00N 60°00' E 028°24'5 9.5 150 / 101009.0 5.4 15.0 15.0
2018-Jun-13 22:31N 60°04' E 028°21'714.0
2018-Jun-13 22:01N 60°08' E 028°09'714.7
2018-Jun-13 21:30N 60°10' E 027°55'713.7
2018-Jun-13 21:00N 60°09' E 027°41'714.6
2018-Jun-13 20:30N 60°05' E 027°28'815.2
2018-Jun-13 20:00N 60°01' E 027°15'815.1
2018-Jun-13 19:31N 59°58' E 027°02'815.2
2018-Jun-13 19:00N 59°59' E 026°47'6409.0
2018-Jun-13 19:00N 59°54' E 026°54'1224.8 020 / 41010.010.8 13.0 6.815.0
2018-Jun-13 18:30N 59°59' E 026°32'917.1
2018-Jun-13 18:00N 59°56' E 026°15'8515.5
2018-Jun-13 18:00N 59°54' E 026°00'2 3.1 300 / 41010.010.8 14.0 8.015.0
2018-Jun-13 17:30N 59°54' E 025°57'918.6
2018-Jun-13 17:00N 59°52' E 025°38'918.8
2018-Jun-13 16:30N 59°53' E 025°20'918.5
2018-Jun-13 16:01N 59°54' E 025°02'4229.6
2018-Jun-13 16:00N 59°54' E 024°54'715.0 250 / 221006.010.8 15.0 14.0
2018-Jun-13 15:31N 60°01' E 024°56'713.8
2018-Jun-13 15:00N 60°08' E 024°54'1 2.2
2018-Jun-13 14:30N 60°09' E 024°55'0 0.0
2018-Jun-13 14:00N 60°09' E 024°55'0 0.0
2018-Jun-13 13:30N 60°09' E 024°55'0 0.0
2018-Jun-13 12:57N 60°09' E 024°55'0 0.0
2018-Jun-13 12:30N 60°09' E 024°55'0 0.0
2018-Jun-13 12:00N 60°09' E 024°55'0 0.0
2018-Jun-13 11:30N 60°09' E 024°55'0 0.0
2018-Jun-13 11:00N 60°09' E 024°55'0 0.0
2018-Jun-13 10:30N 60°09' E 024°55'0 0.0
2018-Jun-13 10:00N 60°09' E 024°55'0 0.0
2018-Jun-13 09:30N 60°09' E 024°55'0 0.0
2018-Jun-13 09:00N 60°09' E 024°55'0 0.0
2018-Jun-13 08:30N 60°09' E 024°55'0 0.0
2018-Jun-13 08:00N 60°09' E 024°55'0 0.0
2018-Jun-13 07:30N 60°09' E 024°55'0 0.0
2018-Jun-13 07:00N 60°09' E 024°55'0 0.0
2018-Jun-13 06:30N 60°09' E 024°55'0 0.0
2018-Jun-13 06:00N 60°09' E 024°55'0 0.7
2018-Jun-13 05:30N 60°09' E 024°55'4 7.3
2018-Jun-13 05:00N 60°05' E 024°54'713.1
2018-Jun-13 04:30N 59°59' E 024°57'510.0
2018-Jun-13 04:00N 59°54' E 024°55'510.5
2018-Jun-13 03:30N 59°49' E 024°52'612.1
2018-Jun-13 03:00N 59°46' E 024°42'713.4
2018-Jun-13 02:31N 59°44' E 024°29'714.0
2018-Jun-13 02:00N 59°42' E 024°15'2163.1
2018-Jun-13 02:00N 59°42' E 024°12'511.2 360 / 171005.010.8 12.0 13.0
2018-Jun-13 01:30N 59°40' E 024°02'714.3
2018-Jun-13 01:00N 59°37' E 023°49'918.5
2018-Jun-13 00:30N 59°35' E 023°32'1018.8
2018-Jun-13 00:00N 59°32' E 023°14'1019.0
2018-Jun-12 23:29N 59°28' E 022°56'1818.7
2018-Jun-12 22:32N 59°21' E 022°24'018.1
2018-Jun-12 22:30N 59°20' E 022°23'918.2
2018-Jun-12 22:00N 59°14' E 022°10'3194.0
2018-Jun-12 22:00N 59°12' E 022°06'612.4 330 / 251006.0 5.4 13.0 13.0
2018-Jun-12 21:30N 59°08' E 021°57'918.0
2018-Jun-12 21:00N 59°02' E 021°44'917.8
2018-Jun-12 20:30N 58°55' E 021°34'917.7
2018-Jun-12 20:00N 58°48' E 021°24'3225.5
2018-Jun-12 20:00N 58°48' E 021°30'1123.3 340 / 211006.010.8 13.0 9.114.0
2018-Jun-12 19:30N 58°40' E 021°14'1118.4
2018-Jun-12 18:54N 58°31' E 021°02'2325.8
2018-Jun-12 18:00N 58°12' E 020°36'5317.7 340 / 141006.010.8 13.0 9.114.0
2018-Jun-12 15:00N 57°24' E 019°54'8416.7 350 / 201005.010.8 14.0 16.0
2018-Jun-12 10:00N 56°12' E 018°36'3232.3 320 / 251015.0 5.4 16.0 16.0
2018-Jun-12 09:00N 55°54' E 017°48'7416.1 320 / 211005.010.8 16.010.416.0
2018-Jun-12 04:25N 55°39' E 015°40'1118.9
2018-Jun-12 03:51N 55°37' E 015°22'618.8
2018-Jun-12 03:30N 55°34' E 015°11'1019.2
2018-Jun-12 03:00N 55°30' E 014°56'176.2
2018-Jun-12 03:00N 55°30' E 014°54'918.2 280 / 211006.010.8 14.0 15.0
2018-Jun-12 02:30N 55°25' E 014°42'918.8
2018-Jun-12 02:00N 55°18' E 014°31'7467.4
2018-Jun-12 02:00N 55°12' E 014°24'3 6.7 290 / 251008.0 5.4 15.0 17.0
2018-Jun-12 01:30N 55°11' E 014°18'1118.4
2018-Jun-12 00:54N 55°09' E 013°59'818.6
2018-Jun-12 00:28N 55°10' E 013°45'1632.8
2018-Jun-12 00:00N 55°12' E 013°18'7 9.5 290 / 221009.0 5.4 15.0 17.0
2018-Jun-11 23:15N 55°14' E 013°06'418.4
2018-Jun-11 23:00N 55°14' E 012°58'918.0
2018-Jun-11 22:30N 55°17' E 012°43'713.5
2018-Jun-11 22:00N 55°23' E 012°38'816.2
2018-Jun-11 21:30N 55°31' E 012°42'4 9.0
2018-Jun-11 21:00N 55°35' E 012°42'5 9.4
2018-Jun-11 20:30N 55°40' E 012°41'4 7.7
2018-Jun-11 20:00N 55°43' E 012°38'1 2.5
2018-Jun-11 19:30N 55°42' E 012°36'0 0.2
2018-Jun-11 19:00N 55°42' E 012°36'0 9.2 280 / 51009.010.8 16.012.420.0
2018-Jun-11 18:59N 55°42' E 012°36'0 0.0
2018-Jun-11 18:29N 55°42' E 012°36'0 0.0
2018-Jun-11 17:59N 55°42' E 012°36'0 0.0
2018-Jun-11 17:29N 55°42' E 012°36'0 0.0
2018-Jun-11 16:59N 55°42' E 012°36'0 0.0
2018-Jun-11 16:29N 55°42' E 012°36'0 0.0
2018-Jun-11 15:59N 55°42' E 012°36'0 0.0
2018-Jun-11 15:29N 55°42' E 012°36'0 0.0
2018-Jun-11 14:59N 55°42' E 012°36'0 0.0
2018-Jun-11 14:29N 55°42' E 012°36'0 0.0
2018-Jun-11 13:59N 55°42' E 012°36'0 0.0
2018-Jun-11 13:29N 55°42' E 012°36'0 0.0
2018-Jun-11 12:59N 55°42' E 012°36'0 0.0
2018-Jun-11 12:29N 55°42' E 012°36'0 0.0
2018-Jun-11 11:59N 55°42' E 012°36'0 0.0
2018-Jun-11 11:29N 55°42' E 012°36'0 0.0
2018-Jun-11 10:59N 55°42' E 012°36'0 0.0
2018-Jun-11 10:29N 55°42' E 012°36'0 0.0
2018-Jun-11 09:59N 55°42' E 012°36'0 0.0
2018-Jun-11 09:29N 55°42' E 012°36'0 0.0
2018-Jun-11 08:59N 55°42' E 012°36'0 0.0
2018-Jun-11 08:29N 55°42' E 012°36'0 0.0
2018-Jun-11 07:59N 55°42' E 012°36'0 0.0
2018-Jun-11 07:29N 55°42' E 012°36'0 0.0
2018-Jun-11 06:59N 55°42' E 012°36'0 0.0
2018-Jun-11 06:29N 55°42' E 012°36'0 0.5
2018-Jun-11 06:01N 55°42' E 012°36'3 5.0
2018-Jun-11 05:30N 55°44' E 012°40'2 5.0
2018-Jun-11 05:00N 55°46' E 012°42'510.3
2018-Jun-11 04:30N 55°51' E 012°41'510.9
2018-Jun-11 04:00N 55°57' E 012°39'713.9
2018-Jun-11 03:30N 56°04' E 012°38'815.5
2018-Jun-11 03:00N 56°09' E 012°27'6353.9
2018-Jun-11 03:00N 56°06' E 012°18'3819.2 290 / 151014.010.8 12.0 14.0
2018-Jun-11 01:00N 56°42' E 011°54'3310.3 280 / 251009.010.8 16.0 20.0
2018-Jun-10 21:48N 57°13' E 011°34'414.8
2018-Jun-10 21:30N 57°17' E 011°32'715.0
2018-Jun-10 21:00N 57°24' E 011°27'5304.6
2018-Jun-10 21:00N 57°24' E 011°18'613.1 270 / 201009.010.8 15.011.319.0
2018-Jun-10 20:30N 57°30' E 011°20'714.4
2018-Jun-10 20:00N 57°35' E 011°10'714.6
2018-Jun-10 19:30N 57°40' E 010°59'918.5
2018-Jun-10 19:00N 57°42' E 010°42'2914.4 250 / 201009.0 5.4 15.011.319.0
2018-Jun-10 17:00N 57°42' E 009°48'9017.9 250 / 121014.0 5.4 14.0 16.0
2018-Jun-10 12:00N 56°48' E 007°36'2914.6 300 / 151012.0 5.4 14.0 18.0
2018-Jun-10 10:00N 56°24' E 007°06'1919.2 300 / 151014.0 5.4 14.010.214.0
2018-Jun-10 09:00N 56°06' E 006°54'2120.6 290 / 181014.010.8 14.010.215.0
2018-Jun-10 08:00N 55°48' E 006°36'10020.1 030 / 151014.010.8 14.0 16.0
2018-Jun-10 03:00N 54°18' E 005°18'0 0.0 1015.0
2018-Jun-10 02:00N 54°18' E 005°18'3721.9 340 / 201015.0 5.4 15.0 15.0
2018-Jun-10 00:17N 53°43' E 004°55'518.3
2018-Jun-10 00:00N 53°38' E 004°52'16986.0
2018-Jun-10 00:00N 53°24' E 004°42'713.6 1015.0 15.0 15.0
2018-Jun-09 23:30N 53°30' E 004°47'917.9
2018-Jun-09 23:00N 53°22' E 004°39'2195.2
2018-Jun-09 23:00N 53°24' E 004°42'1521.3 350 / 151015.0 5.4 15.0 15.0
2018-Jun-09 22:16N 53°10' E 004°31'517.5
2018-Jun-09 22:00N 53°06' E 004°27'917.4
2018-Jun-09 21:30N 52°58' E 004°22'917.3
2018-Jun-09 21:00N 52°50' E 004°16'4255.5
2018-Jun-09 21:00N 52°54' E 004°18'1326.1 010 / 151014.010.8 14.010.215.0
2018-Jun-09 20:30N 52°43' E 004°08'816.5
2018-Jun-09 20:00N 52°35' E 004°06'5313.8
2018-Jun-09 20:00N 52°30' E 004°06'715.3 020 / 171014.010.8 15.011.315.0
2018-Jun-09 19:30N 52°30' E 004°18'714.4
2018-Jun-09 19:00N 52°29' E 004°30'6363.4
2018-Jun-09 19:00N 52°24' E 004°24'917.7 010 / 251014.010.8 15.0 9.215.0
2018-Jun-09 18:31N 52°28' E 004°36'0 0.7
2018-Jun-09 18:00N 52°28' E 004°37'3 5.6
2018-Jun-09 17:31N 52°27' E 004°41'4 7.2
2018-Jun-09 17:01N 52°26' E 004°47'3193.1
2018-Jun-09 17:00N 52°24' E 004°42'613.1 030 / 141014.0 5.4 22.0 17.0
2018-Jun-09 16:31N 52°25' E 004°52'2 4.9
2018-Jun-09 16:00N 52°23' E 004°55'0 0.1
2018-Jun-09 15:30N 52°23' E 004°55'0 0.0
2018-Jun-09 14:30N 52°23' E 004°55'0 0.0
2018-Jun-09 14:00N 52°23' E 004°55'0 0.0
2018-Jun-09 13:30N 52°23' E 004°55'0 0.0
2018-Jun-09 13:00N 52°23' E 004°55'0 0.0
2018-Jun-09 12:30N 52°23' E 004°55'0 0.0
2018-Jun-09 12:00N 52°23' E 004°55'0 0.0
2018-Jun-09 11:27N 52°23' E 004°55'0 0.0
2018-Jun-09 11:00N 52°23' E 004°55'0 0.0
2018-Jun-09 10:30N 52°23' E 004°55'0 0.0
2018-Jun-09 10:00N 52°23' E 004°55'0 0.0
2018-Jun-09 09:30N 52°23' E 004°55'0 0.0
2018-Jun-09 09:00N 52°23' E 004°55'0 0.0
2018-Jun-09 08:30N 52°23' E 004°55'0 0.0
2018-Jun-09 08:00N 52°23' E 004°55'0 0.0
2018-Jun-09 07:30N 52°23' E 004°55'0 0.0
2018-Jun-09 07:00N 52°23' E 004°55'0 0.0
2018-Jun-09 06:30N 52°23' E 004°55'0 0.0
2018-Jun-09 06:00N 52°23' E 004°55'0 0.0
2018-Jun-09 05:30N 52°23' E 004°55'0 0.0
2018-Jun-09 05:00N 52°23' E 004°55'0 0.0
2018-Jun-09 04:30N 52°23' E 004°55'0 0.0
2018-Jun-09 04:00N 52°23' E 004°55'0 0.0
2018-Jun-09 03:30N 52°23' E 004°55'0 0.0
2018-Jun-09 03:00N 52°23' E 004°55'0 0.0
2018-Jun-09 02:30N 52°23' E 004°55'0 0.0
2018-Jun-09 02:00N 52°23' E 004°55'17515027.0
2018-Jun-09 02:00N 55°18' E 004°54'175358.8 010 / 101015.0 5.4 16.0 16.0
2018-Jun-09 01:30N 52°23' E 004°55'0 0.0
2018-Jun-09 01:00N 52°23' E 004°55'  

Dump ship's entire track history